Time;durP1;ratioP1;P1;durP2;ratioP2;P2;SDS_P1;SDS_P2;PMS_P1;PMS_P2;Temp;Humidity;BMP_temperature;BMP_pressure;BME280_temperature;BME280_humidity;BME280_pressure;Samples;Min_cycle;Max_cycle;Signal;HPM_P1;HPM_P2
2023/05/04 00:01:57;;;;;;;14.45;8.63;;;;;;;11.01;100.00;104033.97;5093457;28;20468;-73
2023/05/04 00:04:22;;;;;;;17.67;9.15;;;;;;;11.07;100.00;104039.25;5093684;28;20032;-72
2023/05/04 00:06:48;;;;;;;14.32;8.82;;;;;;;11.40;100.00;104093.09;5093465;28;20118;-72
2023/05/04 00:09:14;;;;;;;16.33;8.75;;;;;;;11.27;100.00;104063.75;5091285;28;20040;-72
2023/05/04 00:11:40;;;;;;;16.13;8.60;;;;;;;11.19;100.00;104043.94;5093406;28;20039;-71
2023/05/04 00:14:05;;;;;;;14.90;8.25;;;;;;;11.05;100.00;104038.34;5092175;28;20031;-72
2023/05/04 00:16:31;;;;;;;17.23;9.27;;;;;;;11.51;100.00;104130.00;5092044;28;20076;-73
2023/05/04 00:18:56;;;;;;;16.58;9.50;;;;;;;11.38;100.00;104112.56;5091979;28;20123;-73
2023/05/04 00:21:21;;;;;;;17.40;8.80;;;;;;;11.56;100.00;104178.63;5092238;28;20069;-73
2023/05/04 00:23:47;;;;;;;12.25;7.90;;;;;;;10.72;100.00;104033.72;5094066;28;20563;-73
2023/05/04 00:26:12;;;;;;;12.45;8.50;;;;;;;10.97;100.00;104056.72;5093162;28;20032;-73
2023/05/04 00:28:38;;;;;;;16.02;8.70;;;;;;;11.04;100.00;104058.66;5092073;28;20028;-73
2023/05/04 00:31:03;;;;;;;14.27;8.50;;;;;;;10.91;100.00;104019.19;5092161;28;20043;-73
2023/05/04 00:33:29;;;;;;;15.55;8.77;;;;;;;11.22;100.00;104055.13;5091770;28;20426;-72
2023/05/04 00:35:54;;;;;;;12.52;8.60;;;;;;;11.35;100.00;104094.59;5091401;28;20099;-72
2023/05/04 00:38:20;;;;;;;17.80;9.02;;;;;;;11.08;100.00;104050.34;5092731;28;20054;-73
2023/05/04 00:40:45;;;;;;;15.52;8.70;;;;;;;11.28;100.00;104057.00;5091981;28;20028;-73
2023/05/04 00:43:11;;;;;;;15.23;8.82;;;;;;;10.98;100.00;103995.66;5092038;28;20039;-73
2023/05/04 00:45:36;;;;;;;16.25;8.90;;;;;;;11.01;100.00;104002.56;5092788;28;20562;-73
2023/05/04 00:48:02;;;;;;;14.77;8.98;;;;;;;11.31;100.00;104037.59;5092930;28;20111;-74
2023/05/04 00:50:28;;;;;;;14.13;9.32;;;;;;;11.48;100.00;104061.09;5092510;28;20115;-72
2023/05/04 00:52:57;;;;;;;14.38;9.35;;;;;;;11.00;100.00;103981.31;5092764;28;20036;-72
2023/05/04 00:55:22;;;;;;;15.43;8.85;;;;;;;11.28;100.00;104034.94;5092830;28;20036;-72
2023/05/04 00:57:49;;;;;;;14.32;9.20;;;;;;;10.93;100.00;103969.19;5091867;28;20051;-72
2023/05/04 01:00:16;;;;;;;14.98;8.43;;;;;;;11.12;100.00;104003.78;5091926;28;20506;-73
2023/05/04 01:02:42;;;;;;;13.90;8.55;;;;;;;11.18;100.00;103991.25;5093124;28;20071;-72
2023/05/04 01:05:09;;;;;;;13.73;8.35;;;;;;;11.22;100.00;103965.94;5092435;28;20063;-72
2023/05/04 01:07:41;;;;;;;16.35;8.40;;;;;;;10.75;100.00;103878.56;5092827;28;20020;-73
2023/05/04 01:10:16;;;;;;;13.30;7.72;;;;;;;10.94;100.00;103886.88;5082919;28;20025;-72
2023/05/04 01:12:57;;;;;;;17.23;8.48;;;;;;;11.00;100.00;103910.00;5071253;28;20036;-73
2023/05/04 01:15:22;;;;;;;13.52;7.90;;;;;;;11.00;100.00;103853.09;5071420;28;20040;-73
2023/05/04 01:17:48;;;;;;;13.10;8.07;;;;;;;11.08;100.00;103854.22;5070858;28;20052;-73
2023/05/04 01:20:13;;;;;;;12.68;8.25;;;;;;;11.15;100.00;103849.38;5071003;28;20089;-72
2023/05/04 01:22:39;;;;;;;16.30;8.50;;;;;;;10.96;100.00;103810.53;5071673;28;20032;-73
2023/05/04 01:25:06;;;;;;;14.63;7.90;;;;;;;11.09;100.00;103766.81;5071954;28;20028;-72
2023/05/04 01:27:44;;;;;;;12.93;8.27;;;;;;;11.25;100.00;103720.63;5071016;28;20032;-72
2023/05/04 01:30:28;;;;;;;15.98;8.52;;;;;;;11.14;100.00;103678.66;5070506;28;20086;-72
2023/05/04 01:32:56;;;;;;;15.63;8.00;;;;;;;10.80;100.00;103613.16;5072304;28;20048;-72
2023/05/04 01:35:23;;;;;;;13.80;8.52;;;;;;;11.18;100.00;103661.00;5071840;28;20024;-72
2023/05/04 01:37:48;;;;;;;15.85;8.63;;;;;;;11.09;100.00;103652.22;5071961;28;20074;-72
2023/05/04 01:40:14;;;;;;;16.05;7.93;;;;;;;11.01;100.00;103634.16;5070026;28;20430;-72
2023/05/04 01:42:39;;;;;;;15.82;7.90;;;;;;;10.77;100.00;103581.66;5070370;28;20468;-72
2023/05/04 01:45:06;;;;;;;16.92;8.10;;;;;;;11.06;100.00;103613.91;5071708;28;20032;-71
2023/05/04 01:47:32;;;;;;;17.65;8.27;;;;;;;10.80;100.00;103538.47;5070077;28;20029;-73
2023/05/04 01:49:57;;;;;;;13.90;8.10;;;;;;;11.12;100.00;103573.34;5071240;28;20098;-73
2023/05/04 01:52:23;;;;;;;16.38;7.88;;;;;;;11.30;100.00;103612.06;5070866;28;20487;-73
2023/05/04 01:54:48;;;;;;;12.68;7.85;;;;;;;11.04;100.00;103562.06;5070745;28;20035;-73
2023/05/04 01:57:13;;;;;;;13.63;7.95;;;;;;;10.45;100.00;103441.66;5071286;28;20060;-73
2023/05/04 01:59:39;;;;;;;15.63;7.55;;;;;;;10.99;100.00;103561.94;5069695;28;20119;-73
2023/05/04 02:02:04;;;;;;;16.25;7.65;;;;;;;11.08;100.00;103564.75;5071433;28;20483;-73
2023/05/04 02:04:30;;;;;;;13.18;7.38;;;;;;;11.30;100.00;103590.00;5071866;28;20021;-73
2023/05/04 02:06:55;;;;;;;12.23;7.10;;;;;;;11.14;100.00;103556.41;5071233;28;20118;-74
2023/05/04 02:09:21;;;;;;;13.02;7.28;;;;;;;11.21;100.00;103541.34;5071376;28;20033;-73
2023/05/04 02:11:46;;;;;;;13.73;7.00;;;;;;;11.18;100.00;103531.09;5070477;28;20028;-74
2023/05/04 02:14:12;;;;;;;14.90;7.38;;;;;;;11.05;100.00;103492.53;5070584;28;20062;-74
2023/05/04 02:16:37;;;;;;;11.27;6.88;;;;;;;10.80;100.00;103454.47;5069697;28;20045;-73
2023/05/04 02:19:02;;;;;;;12.43;6.90;;;;;;;11.23;100.00;103513.38;5070958;28;20067;-74
2023/05/04 02:21:29;;;;;;;12.25;7.35;;;;;;;11.45;100.00;103538.56;5069503;28;20025;-74
2023/05/04 02:23:54;;;;;;;11.45;6.63;;;;;;;11.54;100.00;103545.59;5071641;28;20032;-74
2023/05/04 02:26:20;;;;;;;11.68;6.72;;;;;;;11.42;100.00;103530.88;5071074;28;20516;-74
2023/05/04 02:28:45;;;;;;;14.15;7.20;;;;;;;11.24;100.00;103464.16;5071276;28;20523;-72
2023/05/04 02:31:10;;;;;;;13.70;6.97;;;;;;;11.15;100.00;103410.44;5068734;28;20032;-72
2023/05/04 02:33:37;;;;;;;12.90;7.00;;;;;;;11.63;100.00;103482.97;5054403;28;20052;-73
2023/05/04 02:36:02;;;;;;;12.02;7.07;;;;;;;11.56;100.00;103473.47;5066377;28;20033;-73
2023/05/04 02:38:28;;;;;;;12.00;7.03;;;;;;;11.08;100.00;103391.59;5049771;28;20410;-72
2023/05/04 02:40:53;;;;;;;10.07;7.15;;;;;;;11.10;100.00;103374.66;5050733;28;20090;-73
2023/05/04 02:43:19;;;;;;;12.77;7.82;;;;;;;11.03;100.00;103347.31;5066353;28;20883;-74
2023/05/04 02:45:44;;;;;;;13.30;7.65;;;;;;;11.46;100.00;103396.75;5049835;28;20036;-73
2023/05/04 02:48:10;;;;;;;13.60;8.00;;;;;;;11.22;100.00;103361.38;5050559;28;20080;-73
2023/05/04 02:50:36;;;;;;;13.32;7.70;;;;;;;11.26;100.00;103338.56;5051182;28;20076;-73
2023/05/04 02:53:02;;;;;;;16.05;8.10;;;;;;;11.17;100.00;103304.38;5066727;28;20098;-73
2023/05/04 02:55:27;;;;;;;13.00;7.57;;;;;;;10.98;100.00;103262.34;5050364;28;20032;-74
2023/05/04 02:57:52;;;;;;;12.88;7.47;;;;;;;10.50;100.00;103164.47;5049985;28;20172;-74
2023/05/04 03:00:18;;;;;;;13.30;7.65;;;;;;;11.03;100.00;103237.81;5050655;28;20037;-75
2023/05/04 03:02:43;;;;;;;12.32;7.85;;;;;;;11.08;100.00;103210.78;5065772;28;20029;-74
2023/05/04 03:05:09;;;;;;;12.10;7.60;;;;;;;11.02;100.00;103210.66;5065759;28;20107;-73
2023/05/04 03:07:34;;;;;;;14.02;9.10;;;;;;;11.21;100.00;103205.13;5066370;28;20076;-74
2023/05/04 03:10:00;;;;;;;15.63;8.38;;;;;;;11.08;100.00;103192.09;5066083;28;20033;-75
2023/05/04 03:12:30;;;;;;;12.38;8.18;;;;;;;10.97;100.00;103142.66;5060591;28;20036;-74
2023/05/04 03:14:55;;;;;;;10.70;7.32;;;;;;;10.40;100.00;103023.50;5068686;28;20058;-73
2023/05/04 03:17:21;;;;;;;11.20;7.18;;;;;;;11.14;100.00;103116.69;5068781;28;20503;-73
2023/05/04 03:19:46;;;;;;;10.98;7.50;;;;;;;11.01;100.00;103089.25;5063885;28;20035;-73
2023/05/04 03:22:12;;;;;;;11.30;7.00;;;;;;;11.15;100.00;103080.22;5072428;28;20072;-75
2023/05/04 03:24:38;;;;;;;10.98;7.10;;;;;;;11.09;100.00;103080.09;5074400;28;20578;-74
2023/05/04 03:27:04;;;;;;;10.13;6.95;;;;;;;11.03;100.00;103046.88;5074970;28;20032;-74
2023/05/04 03:29:29;;;;;;;12.20;6.95;;;;;;;10.92;100.00;103016.94;5072806;28;20561;-75
2023/05/04 03:31:55;;;;;;;9.98;7.20;;;;;;;11.09;100.00;103028.31;5073569;28;20041;-73
2023/05/04 03:34:20;;;;;;;12.63;7.45;;;;;;;11.20;100.00;103020.06;5073552;28;20071;-70
2023/05/04 03:36:47;;;;;;;11.15;6.38;;;;;;;12.11;100.00;103101.53;5072948;28;20029;-71
2023/05/04 03:39:13;;;;;;;11.95;7.53;;;;;;;10.69;100.00;102907.06;5072896;28;20033;-74
2023/05/04 03:41:38;;;;;;;12.27;7.60;;;;;;;10.92;100.00;102927.84;5072813;28;20033;-75
2023/05/04 03:44:04;;;;;;;14.50;7.20;;;;;;;10.99;100.00;102933.06;5073918;28;20044;-75
2023/05/04 03:46:29;;;;;;;14.23;7.20;;;;;;;10.99;100.00;102922.88;5073148;28;20028;-77
2023/05/04 03:48:56;;;;;;;11.93;7.43;;;;;;;10.90;100.00;102894.72;5059289;28;20051;-76
2023/05/04 03:51:21;;;;;;;10.98;7.03;;;;;;;11.37;100.00;102930.34;5053206;28;20029;-74
2023/05/04 03:53:47;;;;;;;11.32;6.90;;;;;;;11.25;100.00;102920.81;5070726;28;20032;-76
2023/05/04 03:56:12;;;;;;;11.85;7.63;;;;;;;11.06;100.00;102883.13;5060689;28;20144;-76
2023/05/04 03:58:38;;;;;;;12.77;7.72;;;;;;;10.74;100.00;102807.91;5073430;28;20086;-76
2023/05/04 04:01:03;;;;;;;13.30;7.38;;;;;;;10.69;100.00;102790.03;5072985;28;20036;-78
2023/05/04 04:03:29;;;;;;;12.82;7.32;;;;;;;10.94;100.00;102819.28;5071681;28;20044;-74
2023/05/04 04:05:55;;;;;;;14.50;7.78;;;;;;;11.10;100.00;102798.31;5073538;28;20030;-72
2023/05/04 04:08:20;;;;;;;13.27;7.90;;;;;;;11.02;100.00;102774.44;5072238;28;20151;-71
2023/05/04 04:10:46;;;;;;;10.18;6.70;;;;;;;11.47;100.00;102810.75;5072424;28;20044;-71
2023/05/04 04:13:11;;;;;;;10.45;7.13;;;;;;;11.43;100.00;102795.44;5072369;28;20396;-71
2023/05/04 04:15:36;;;;;;;11.77;7.18;;;;;;;11.14;100.00;102770.38;5072678;28;20028;-70
2023/05/04 04:18:02;;;;;;;12.63;7.50;;;;;;;11.31;100.00;102811.38;5073012;28;20515;-72
2023/05/04 04:20:27;;;;;;;12.18;7.30;;;;;;;11.08;100.00;102777.06;5072204;28;20091;-76
2023/05/04 04:22:53;;;;;;;11.80;7.05;;;;;;;11.11;100.00;102810.22;5072555;28;20028;-78
2023/05/04 04:25:18;;;;;;;10.63;6.78;;;;;;;10.65;100.00;102752.63;5073746;28;20086;-73
2023/05/04 04:27:44;;;;;;;12.38;7.28;;;;;;;11.35;100.00;102844.56;5071577;28;20469;-73
2023/05/04 04:30:11;;;;;;;12.38;7.78;;;;;;;11.18;100.00;102787.44;5072582;28;20440;-74
2023/05/04 04:32:36;;;;;;;11.10;7.20;;;;;;;11.38;100.00;102823.38;5070775;28;20025;-75
2023/05/04 04:35:02;;;;;;;13.70;7.43;;;;;;;11.56;100.00;102838.06;5077294;28;20037;-75
2023/05/04 04:37:27;;;;;;;11.27;7.32;;;;;;;11.45;100.00;102811.59;5072488;28;20093;-75
2023/05/04 04:39:54;;;;;;;14.50;7.65;;;;;;;11.63;100.00;102868.75;5072167;28;20449;-75
2023/05/04 04:42:20;;;;;;;11.60;7.20;;;;;;;11.73;100.00;102875.72;5073185;28;20043;-75
2023/05/04 04:44:45;;;;;;;9.13;7.13;;;;;;;11.51;100.00;102852.44;5073330;28;20024;-73
2023/05/04 04:47:11;;;;;;;11.77;7.35;;;;;;;11.10;100.00;102808.50;5070834;28;20029;-73
2023/05/04 04:49:36;;;;;;;13.82;7.70;;;;;;;11.60;100.00;102878.91;5071843;28;20510;-76
2023/05/04 04:52:02;;;;;;;12.85;7.47;;;;;;;11.65;100.00;102850.91;5072083;28;20116;-75
2023/05/04 04:54:28;;;;;;;11.10;7.20;;;;;;;11.62;100.00;102850.88;5070890;28;20031;-75
2023/05/04 04:56:53;;;;;;;9.75;7.07;;;;;;;11.66;100.00;102886.69;5070994;28;20024;-75
2023/05/04 04:59:19;;;;;;;13.30;7.07;;;;;;;11.46;100.00;102839.63;5071718;28;20541;-75
2023/05/04 05:01:45;;;;;;;11.70;7.35;;;;;;;11.77;100.00;102862.19;5071743;28;20089;-75
2023/05/04 05:04:10;;;;;;;14.93;7.90;;;;;;;11.74;100.00;102833.25;5069956;28;20067;-75
2023/05/04 05:06:35;;;;;;;11.25;7.05;;;;;;;11.74;100.00;102846.00;5070727;28;20522;-75
2023/05/04 05:09:01;;;;;;;11.93;7.93;;;;;;;11.33;100.00;102753.66;5070042;28;20024;-76
2023/05/04 05:11:27;;;;;;;14.02;7.90;;;;;;;11.74;100.00;102803.53;5071744;28;20415;-75
2023/05/04 05:13:52;;;;;;;16.90;7.75;;;;;;;11.68;100.00;102754.16;5072363;28;20506;-75
2023/05/04 05:16:17;;;;;;;14.63;7.80;;;;;;;11.58;100.00;102724.28;5070511;28;20134;-75
2023/05/04 05:18:43;;;;;;;14.05;7.82;;;;;;;12.03;100.00;102758.84;5072332;28;20411;-74
2023/05/04 05:21:10;;;;;;;11.65;8.27;;;;;;;11.69;100.00;102703.22;5070086;28;20756;-74
2023/05/04 05:23:35;;;;;;;13.32;9.27;;;;;;;11.87;100.00;102744.19;5072167;28;20046;-75
2023/05/04 05:26:01;;;;;;;15.93;10.40;;;;;;;11.46;100.00;102645.16;5070732;28;20105;-74
2023/05/04 05:28:26;;;;;;;12.82;8.95;;;;;;;12.25;100.00;102741.19;5072187;28;20040;-74
2023/05/04 05:30:52;;;;;;;13.43;7.43;;;;;;;11.85;100.00;102705.09;5071698;28;20041;-75
2023/05/04 05:33:17;;;;;;;12.20;7.20;;;;;;;12.09;100.00;102732.53;5070521;28;20063;-76
2023/05/04 05:35:43;;;;;;;8.88;5.70;;;;;;;12.00;100.00;102687.38;5071847;28;20025;-76
2023/05/04 05:38:09;;;;;;;12.38;6.45;;;;;;;11.99;100.00;102661.88;5070476;28;20169;-75
2023/05/04 05:40:35;;;;;;;9.70;5.88;;;;;;;12.25;100.00;102678.28;5070605;28;20107;-77
2023/05/04 05:43:01;;;;;;;8.70;5.20;;;;;;;12.55;100.00;102706.63;5070889;28;20097;-76
2023/05/04 05:45:27;;;;;;;10.23;6.07;;;;;;;12.15;100.00;102625.47;5071604;28;20119;-76
2023/05/04 05:47:52;;;;;;;9.57;6.32;;;;;;;12.04;100.00;102611.81;5070941;28;20459;-76
2023/05/04 05:50:19;;;;;;;9.40;6.07;;;;;;;12.47;100.00;102682.72;5072085;28;20041;-76
2023/05/04 05:52:44;;;;;;;10.60;6.13;;;;;;;12.44;100.00;102639.31;5070445;28;20039;-76
2023/05/04 05:55:10;;;;;;;12.68;6.18;;;;;;;12.35;100.00;102649.47;5070594;28;20028;-76
2023/05/04 05:57:35;;;;;;;11.20;6.57;;;;;;;12.29;100.00;102600.94;5071810;28;20039;-75
2023/05/04 06:00:01;;;;;;;14.65;7.05;;;;;;;12.32;100.00;102595.00;5072189;28;20028;-76
2023/05/04 06:02:26;;;;;;;10.93;7.05;;;;;;;12.37;100.00;102603.53;5070456;28;20060;-75
2023/05/04 06:04:51;;;;;;;9.98;6.15;;;;;;;12.77;100.00;102623.38;5070417;28;20064;-75
2023/05/04 06:07:18;;;;;;;11.57;6.45;;;;;;;12.47;100.00;102579.78;5070839;28;20119;-75
2023/05/04 06:09:43;;;;;;;12.13;6.20;;;;;;;12.54;100.00;102579.00;5070175;28;20036;-75
2023/05/04 06:12:12;;;;;;;10.20;5.80;;;;;;;12.74;100.00;102605.47;5070115;28;20067;-76
2023/05/04 06:14:40;;;;;;;8.77;6.55;;;;;;;12.83;100.00;102603.84;5071753;28;20036;-75
2023/05/04 06:17:06;;;;;;;8.70;6.18;;;;;;;12.56;100.00;102549.22;5069669;28;20151;-74
2023/05/04 06:19:38;;;;;;;12.30;7.80;;;;;;;12.85;100.00;102601.28;5071507;28;20107;-74
2023/05/04 06:22:03;;;;;;;;;;;;;;;12.62;100.00;102562.88;5068224;28;20085;-74
2023/05/04 06:24:29;;;;;;;9.02;5.78;;;;;;;12.38;100.00;102536.38;5071564;28;19920;-74
2023/05/04 06:26:55;;;;;;;9.80;5.68;;;;;;;12.31;100.00;102515.06;5071488;28;20146;-74
2023/05/04 06:29:21;;;;;;;10.27;6.50;;;;;;;12.53;100.00;102547.53;5071556;28;20025;-74
2023/05/04 06:31:46;;;;;;;9.57;6.32;;;;;;;12.11;100.00;102455.44;5069678;28;20556;-74
2023/05/04 06:34:12;;;;;;;10.00;6.72;;;;;;;12.29;100.00;102491.25;5070200;28;20107;-75
2023/05/04 06:36:37;;;;;;;7.88;6.18;;;;;;;12.20;100.00;102491.22;5070363;28;20037;-75
2023/05/04 06:39:03;;;;;;;11.60;6.95;;;;;;;12.25;100.00;102452.94;5071623;28;20407;-75
2023/05/04 06:41:28;;;;;;;11.60;7.90;;;;;;;12.58;100.00;102505.00;5070512;28;20040;-75
2023/05/04 06:43:54;;;;;;;9.73;6.28;;;;;;;12.07;100.00;102434.16;5070022;28;20115;-75
2023/05/04 06:46:19;;;;;;;11.35;6.97;;;;;;;11.92;100.00;102395.00;5071319;28;20033;-76
2023/05/04 06:48:44;;;;;;;12.40;6.75;;;;;;;12.37;100.00;102473.44;5071541;28;20035;-75
2023/05/04 06:51:10;;;;;;;12.20;6.90;;;;;;;12.42;100.00;102472.59;5069938;28;20033;-76
2023/05/04 06:53:35;;;;;;;11.35;6.95;;;;;;;11.94;100.00;102406.88;5071313;28;20032;-76
2023/05/04 06:56:01;;;;;;;10.10;6.78;;;;;;;12.47;100.00;102476.03;5072482;28;20029;-75
2023/05/04 06:58:27;;;;;;;12.65;7.88;;;;;;;12.51;100.00;102444.59;5075131;28;20028;-76
2023/05/04 07:00:53;;;;;;;11.50;7.50;;;;;;;12.42;100.00;102457.28;5074091;28;20465;-76
2023/05/04 07:03:19;;;;;;;12.45;7.20;;;;;;;12.59;100.00;102454.81;5073634;28;20035;-76
2023/05/04 07:05:47;;;;;;;10.73;6.95;;;;;;;12.13;100.00;102378.09;5073165;28;20112;-75
2023/05/04 07:08:12;;;;;;;9.95;7.20;;;;;;;12.51;100.00;102442.03;5073750;28;20025;-75
2023/05/04 07:10:38;;;;;;;12.50;8.40;;;;;;;12.57;100.00;102431.00;5075006;28;20074;-76
2023/05/04 07:13:03;;;;;;;10.85;7.63;;;;;;;12.37;100.00;102415.59;5073690;28;20115;-75
2023/05/04 07:15:29;;;;;;;14.27;8.38;;;;;;;12.44;100.00;102422.44;5075290;28;20040;-75
2023/05/04 07:17:54;;;;;;;12.70;7.82;;;;;;;12.41;100.00;102413.91;5074860;28;20025;-75
2023/05/04 07:20:20;;;;;;;12.18;8.20;;;;;;;12.23;100.00;102373.03;5073265;28;20032;-75
2023/05/04 07:22:46;;;;;;;12.13;7.97;;;;;;;12.17;100.00;102356.88;5073511;28;20149;-75
2023/05/04 07:25:11;;;;;;;14.02;7.90;;;;;;;12.51;100.00;102403.75;5073541;28;20024;-75
2023/05/04 07:27:37;;;;;;;12.85;8.13;;;;;;;12.80;100.00;102422.53;5073517;28;20123;-75
2023/05/04 07:30:05;;;;;;;10.27;7.20;;;;;;;12.36;100.00;102390.09;5072968;28;20074;-75
2023/05/04 07:32:31;;;;;;;10.88;8.27;;;;;;;12.19;100.00;102346.66;5075019;28;20056;-74
2023/05/04 07:34:56;;;;;;;13.48;8.80;;;;;;;12.55;100.00;102386.75;5073253;28;20032;-75
2023/05/04 07:37:22;;;;;;;13.98;8.05;;;;;;;12.49;100.00;102369.72;5074531;28;20075;-75
2023/05/04 07:39:48;;;;;;;13.85;8.43;;;;;;;12.69;100.00;102387.63;5072928;28;20082;-75
2023/05/04 07:42:15;;;;;;;10.98;7.40;;;;;;;12.78;100.00;102396.16;5073136;28;20033;-75
2023/05/04 07:44:40;;;;;;;11.57;7.72;;;;;;;13.01;100.00;102401.31;5054180;28;20060;-75
2023/05/04 07:47:06;;;;;;;11.75;8.18;;;;;;;12.98;100.00;102404.72;5053942;28;20112;-75
2023/05/04 07:49:32;;;;;;;10.10;8.35;;;;;;;12.77;100.00;102362.97;5068940;28;20446;-75
2023/05/04 07:51:58;;;;;;;10.00;7.70;;;;;;;12.75;100.00;102346.81;5053913;28;20043;-74
2023/05/04 07:54:24;;;;;;;10.70;8.00;;;;;;;12.64;100.00;102307.63;5052386;28;20032;-74
2023/05/04 07:56:49;;;;;;;12.50;7.70;;;;;;;12.88;100.00;102343.41;5069744;28;20059;-75
2023/05/04 07:59:18;;;;;;;11.35;8.07;;;;;;;13.05;100.00;102369.84;5068638;28;20064;-75
2023/05/04 08:01:44;;;;;;;13.55;8.93;;;;;;;13.14;100.00;102372.41;5053729;28;20021;-74
2023/05/04 08:04:09;;;;;;;11.85;8.15;;;;;;;12.98;100.00;102348.53;5054257;28;20059;-76
2023/05/04 08:06:40;;;;;;;12.13;7.80;;;;;;;13.19;100.00;102359.63;5053635;28;20033;-74
2023/05/04 08:09:06;;;;;;;11.07;8.40;;;;;;;12.37;100.00;102231.06;5053498;28;20551;-76
2023/05/04 08:11:34;;;;;;;12.48;8.02;;;;;;;12.48;100.00;102257.47;5052423;28;20116;-75
2023/05/04 08:14:00;;;;;;;9.70;8.20;;;;;;;12.95;100.00;102314.47;5052421;28;20025;-75
2023/05/04 08:16:28;;;;;;;13.48;8.75;;;;;;;12.98;100.00;102311.91;5068814;28;20057;-75
2023/05/04 08:18:55;;;;;;;12.52;8.25;;;;;;;12.74;100.00;102294.91;5068887;28;20120;-75
2023/05/04 08:21:20;;;;;;;11.10;8.25;;;;;;;12.94;100.00;102303.41;5068839;28;20044;-75
2023/05/04 08:23:46;;;;;;;11.45;7.72;;;;;;;12.95;100.00;102283.84;5068650;28;20025;-74
2023/05/04 08:26:11;;;;;;;10.35;7.78;;;;;;;12.92;100.00;102277.03;5052906;28;20546;-74
2023/05/04 08:28:39;;;;;;;12.88;8.23;;;;;;;13.22;100.00;102304.28;5051928;28;20040;-75
2023/05/04 08:31:05;;;;;;;10.85;8.43;;;;;;;13.03;100.00;102254.03;5068698;28;20411;-75
2023/05/04 08:33:31;;;;;;;14.60;9.48;;;;;;;12.94;100.00;102243.81;5052936;28;20037;-75
2023/05/04 08:35:57;;;;;;;14.48;9.00;;;;;;;13.16;100.00;102247.22;5053454;28;20037;-75
2023/05/04 08:38:22;;;;;;;18.27;10.00;;;;;;;13.42;100.00;102304.25;5053599;28;20029;-75
2023/05/04 08:40:48;;;;;;;14.57;9.18;;;;;;;13.00;100.00;102213.19;5052060;28;20040;-74
2023/05/04 08:43:14;;;;;;;14.25;9.05;;;;;;;13.72;100.00;102294.78;5068208;28;20029;-74
2023/05/04 08:45:40;;;;;;;14.10;8.80;;;;;;;13.58;100.00;102291.44;5052882;28;20496;-73
2023/05/04 08:48:06;;;;;;;12.15;8.43;;;;;;;13.35;100.00;102252.28;5068085;28;20037;-74
2023/05/04 08:50:36;;;;;;;10.55;6.93;;;;;;;13.85;100.00;102295.56;5051952;28;20033;-74
2023/05/04 08:53:10;;;;;;;10.63;7.43;;;;;;;13.96;100.00;102283.59;5050200;28;20107;-74
2023/05/04 08:55:36;;;;;;;13.45;8.23;;;;;;;13.95;100.00;102246.09;5052410;28;20037;-74
2023/05/04 08:58:06;;;;;;;10.45;7.63;;;;;;;13.84;100.00;102274.25;5052955;28;20112;-74
2023/05/04 09:00:32;;;;;;;11.60;7.82;;;;;;;13.68;100.00;102187.44;5067515;28;20033;-74
2023/05/04 09:03:02;;;;;;;10.68;7.80;;;;;;;13.58;100.00;102214.75;5052120;28;20043;-74
2023/05/04 09:05:28;;;;;;;13.65;8.65;;;;;;;13.76;100.00;102217.22;5068148;28;20056;-75
2023/05/04 09:07:53;;;;;;;15.55;9.18;;;;;;;13.05;100.00;102104.25;5067888;28;20033;-74
2023/05/04 09:10:19;;;;;;;12.43;8.43;;;;;;;13.84;100.00;102227.41;5061447;28;20091;-74
2023/05/04 09:12:45;;;;;;;15.60;8.88;;;;;;;14.11;100.00;102223.81;4720970;28;9999892;-75
2023/05/04 09:15:18;;;;;;;11.27;8.43;;;;;;;13.78;100.00;102161.81;5068356;28;20052;-74
2023/05/04 09:18:04;;;;;;;10.43;7.55;;;;;;;13.83;100.00;102185.63;5067005;28;20074;-75
2023/05/04 09:20:30;;;;;;;12.45;7.45;;;;;;;13.82;100.00;102183.94;5068062;28;20119;-74
2023/05/04 09:23:05;;;;;;;12.30;7.95;;;;;;;13.29;100.00;102078.56;5067815;28;20033;-74
2023/05/04 09:25:31;;;;;;;12.30;7.80;;;;;;;13.64;100.00;102114.16;5067256;28;20102;-75
2023/05/04 09:27:57;;;;;;;11.23;7.93;;;;;;;13.91;100.00;102155.75;5069268;28;20482;-75
2023/05/04 09:30:22;;;;;;;13.23;9.52;;;;;;;13.98;100.00;102148.03;5068047;28;20028;-78
2023/05/04 09:32:48;;;;;;;13.95;8.00;;;;;;;13.55;100.00;102116.75;5068177;28;20739;-76
2023/05/04 09:35:17;;;;;;;12.13;8.38;;;;;;;13.54;100.00;102098.03;5067061;28;20040;-73
2023/05/04 09:37:47;;;;;;;11.95;7.93;;;;;;;13.58;100.00;102081.84;5072361;28;20036;-76
2023/05/04 09:40:13;;;;;;;10.23;7.63;;;;;;;13.81;100.00;102113.19;5052061;28;20029;-75
2023/05/04 09:42:39;;;;;;;16.13;8.65;;;;;;;14.25;100.00;102137.59;5062825;28;20565;-74
2023/05/04 09:45:06;;;;;;;11.90;8.40;;;;;;;13.84;100.00;102027.94;5081132;28;20111;-75
2023/05/04 09:47:39;;;;;;;11.70;7.45;;;;;;;13.94;100.00;102098.63;5056620;28;20571;-75
2023/05/04 09:50:13;;;;;;;9.93;7.55;;;;;;;14.14;100.00;102095.91;5089458;28;20452;-76
2023/05/04 09:52:40;;;;;;;11.70;7.65;;;;;;;13.65;100.00;102016.16;5089919;28;20028;-76
2023/05/04 09:55:07;;;;;;;10.90;7.72;;;;;;;13.76;100.00;102010.13;5091401;28;20035;-75
2023/05/04 09:57:33;;;;;;;14.13;9.38;;;;;;;14.17;100.00;102063.47;5089375;28;20028;-76
2023/05/04 10:00:00;;;;;;;13.60;8.70;;;;;;;14.31;100.00;102066.78;5089424;28;20105;-76
2023/05/04 10:02:26;;;;;;;11.77;8.45;;;;;;;13.76;100.00;101959.00;5089532;28;20123;-76
2023/05/04 10:04:53;;;;;;;10.93;8.07;;;;;;;14.52;100.00;102055.44;5090204;28;20067;-75
2023/05/04 10:07:19;;;;;;;9.63;7.53;;;;;;;14.18;100.00;102018.25;5089730;28;20055;-76
2023/05/04 10:09:46;;;;;;;11.30;7.88;;;;;;;14.08;100.00;101958.69;5089837;28;20191;-76
2023/05/04 10:12:11;;;;;;;11.93;8.23;;;;;;;14.22;100.00;102007.13;5090571;28;20032;-76
2023/05/04 10:14:37;;;;;;;11.65;7.57;;;;;;;14.07;100.00;101959.53;5089418;28;20507;-76
2023/05/04 10:17:35;;;;;;;10.00;7.28;;;;;;;14.70;100.00;101998.91;5047520;28;1197246;-75
2023/05/04 10:20:03;;;;;;;13.38;8.40;;;;;;;14.74;100.00;102015.94;5037242;28;20156;-76
2023/05/04 10:22:47;;;;;;;12.93;7.60;;;;;;;14.44;100.00;101990.72;5091023;28;20060;-76
2023/05/04 10:25:43;;;;;;;9.82;7.72;;;;;;;14.39;100.00;101942.13;5090723;28;20391;-76
2023/05/04 10:28:25;;;;;;;10.80;7.25;;;;;;;15.00;100.00;101983.16;5087642;28;20043;-76
2023/05/04 10:30:57;;;;;;;10.10;7.38;;;;;;;15.80;100.00;102040.09;5090034;28;20036;-76
2023/05/04 10:33:24;;;;;;;10.07;7.00;;;;;;;16.64;100.00;102086.56;5092008;28;20024;-76
2023/05/04 10:35:53;;;;;;;10.70;7.38;;;;;;;15.36;100.00;101921.13;5091190;28;20028;-76
2023/05/04 10:38:30;;;;;;;8.63;6.65;;;;;;;15.28;100.00;101887.06;5092475;28;20031;-76
2023/05/04 10:40:56;;;;;;;10.82;7.20;;;;;;;15.68;100.00;101958.22;5092066;28;20423;-77
2023/05/04 10:43:25;;;;;;;8.45;7.28;;;;;;;15.13;100.00;101877.03;5092109;28;20024;-76
2023/05/04 10:45:50;;;;;;;9.20;7.57;;;;;;;15.63;100.00;101924.94;5090725;28;20032;-76
2023/05/04 10:48:16;;;;;;;9.07;7.25;;;;;;;15.77;100.00;101933.25;5092055;28;20095;-76
2023/05/04 10:50:48;;;;;;;10.60;6.90;;;;;;;16.05;100.00;101920.75;5092163;28;20082;-77
2023/05/04 10:53:15;;;;;;;7.55;6.60;;;;;;;15.99;100.00;101893.50;5090761;28;20032;-76
2023/05/04 10:55:43;;;;;;;8.82;7.35;;;;;;;15.39;100.00;101821.06;5090323;28;20031;-75
2023/05/04 10:58:10;;;;;;;10.43;7.30;;;;;;;15.63;100.00;101815.53;5091675;28;20091;-76
2023/05/04 11:00:40;;;;;;;11.55;7.50;;;;;;;16.40;100.00;101869.56;5090685;28;20406;-76
2023/05/04 11:03:06;;;;;;;10.32;7.25;;;;;;;16.22;100.00;101839.16;5091429;28;20094;-76
2023/05/04 11:05:43;;;;;;;11.02;7.07;;;;;;;15.71;100.00;101788.91;5090888;28;20032;-75
2023/05/04 11:08:16;;;;;;;13.40;8.85;;;;;;;15.49;100.00;101719.22;5091978;28;20119;-76